Time;durP1;ratioP1;P1;durP2;ratioP2;P2;SDS_P1;SDS_P2;PMS_P1;PMS_P2;Temp;Humidity;BMP_temperature;BMP_pressure;BME280_temperature;BME280_humidity;BME280_pressure;Samples;Min_cycle;Max_cycle;Signal;HPM_P1;HPM_P2
2022/06/20 00:00:11;;;;;;;5.62;3.55;;;;;;;19.35;70.17;99868.11;1734001;82;21104;-73
2022/06/20 00:02:45;;;;;;;6.95;3.40;;;;;;;19.31;70.06;99873.32;1711816;82;21033;-72
2022/06/20 00:05:16;;;;;;;5.62;3.33;;;;;;;19.27;70.00;99869.18;1732134;82;21498;-73
2022/06/20 00:07:43;;;;;;;5.58;3.22;;;;;;;19.23;70.43;99865.04;1717573;82;21038;-73
2022/06/20 00:10:11;;;;;;;6.28;4.17;;;;;;;19.19;70.68;99864.44;1658935;86;21386;-74
2022/06/20 00:12:40;;;;;;;7.37;4.47;;;;;;;19.15;70.77;99860.80;1705194;84;21509;-72
2022/06/20 00:15:12;;;;;;;6.08;4.00;;;;;;;19.07;71.61;99867.58;1704817;83;21098;-72
2022/06/20 00:17:40;;;;;;;6.17;3.92;;;;;;;18.99;72.46;99865.96;1704578;84;21042;-72
2022/06/20 00:20:11;;;;;;;10.43;4.40;;;;;;;18.91;72.84;99868.38;1704573;84;21046;-71
2022/06/20 00:22:37;;;;;;;11.45;5.03;;;;;;;18.82;73.88;99875.25;1711492;83;21561;-72
2022/06/20 00:25:06;;;;;;;9.98;4.53;;;;;;;18.74;74.46;99868.76;1717976;83;21128;-72
2022/06/20 00:27:33;;;;;;;8.30;4.25;;;;;;;18.66;74.82;99868.85;1718129;83;21577;-71
2022/06/20 00:30:02;;;;;;;11.48;4.28;;;;;;;18.59;75.69;99870.28;1718179;83;21166;-72
2022/06/20 00:32:29;;;;;;;9.78;4.78;;;;;;;18.52;75.65;99865.04;1718272;83;21026;-72
2022/06/20 00:34:57;;;;;;;8.13;4.90;;;;;;;18.47;76.97;99866.33;1718402;83;21056;-73
2022/06/20 00:37:23;;;;;;;8.75;5.45;;;;;;;18.39;77.33;99872.23;1718278;83;21089;-73
2022/06/20 00:39:51;;;;;;;13.95;5.12;;;;;;;18.32;78.07;99872.33;1737489;82;21029;-72
2022/06/20 00:42:18;;;;;;;7.85;4.42;;;;;;;18.24;79.03;99868.86;1747921;82;21121;-73
2022/06/20 00:44:48;;;;;;;8.45;4.90;;;;;;;18.18;79.14;99862.18;1741343;82;21084;-72
2022/06/20 00:47:20;;;;;;;7.90;4.70;;;;;;;18.15;79.71;99856.21;1666703;85;21076;-72
2022/06/20 00:49:58;;;;;;;8.35;4.92;;;;;;;18.11;80.51;99854.27;1681049;85;21029;-72
2022/06/20 00:52:39;;;;;;;8.53;4.30;;;;;;;18.07;80.66;99848.78;1717960;83;21068;-72
2022/06/20 00:55:23;;;;;;;8.08;4.70;;;;;;;18.02;80.85;99841.61;1718137;83;21183;-74
2022/06/20 00:58:12;;;;;;;8.18;3.85;;;;;;;17.95;80.93;99845.69;1717681;83;21533;-72
2022/06/20 01:00:39;;;;;;;9.63;3.75;;;;;;;17.90;80.56;99847.81;1717049;83;21072;-72
2022/06/20 01:03:13;;;;;;;4.92;3.80;;;;;;;17.90;80.93;99849.14;1717875;83;21660;-72
2022/06/20 01:05:54;;;;;;;6.30;3.45;;;;;;;17.88;81.28;99841.77;1691610;83;21028;-73
2022/06/20 01:08:25;;;;;;;9.28;3.98;;;;;;;17.88;81.03;99840.44;1718160;83;21156;-72
2022/06/20 01:10:56;;;;;;;6.05;3.70;;;;;;;17.86;80.80;99846.34;1717995;83;21061;-73
2022/06/20 01:13:30;;;;;;;9.55;3.50;;;;;;;17.87;80.47;99843.55;1717929;83;21971;-71
2022/06/20 01:15:59;;;;;;;9.23;4.10;;;;;;;17.90;79.98;99838.48;1717904;83;21117;-73
2022/06/20 01:18:30;;;;;;;8.30;3.77;;;;;;;17.89;79.80;99836.80;1718364;83;21631;-72
2022/06/20 01:21:03;;;;;;;6.47;4.10;;;;;;;17.88;79.60;99833.77;1718175;83;21220;-72
2022/06/20 01:23:58;;;;;;;8.60;3.77;;;;;;;17.88;79.52;99831.11;1717796;83;21556;-71
2022/06/20 01:26:48;;;;;;;10.90;4.15;;;;;;;17.88;79.58;99835.11;1712306;83;21881;-71
2022/06/20 01:29:15;;;;;;;8.35;3.50;;;;;;;17.87;79.67;99828.06;1718109;83;21462;-73
2022/06/20 01:31:52;;;;;;;6.87;3.95;;;;;;;17.86;79.45;99831.70;1718493;83;21105;-73
2022/06/20 01:37:23;;;;;;;5.28;3.50;;;;;;;17.84;79.28;99824.30;1795721;79;22653;-72
2022/06/20 01:39:55;;;;;;;8.88;3.70;;;;;;;17.81;79.10;99827.55;1761425;81;21120;-72
2022/06/20 01:42:19;;;;;;;7.30;3.75;;;;;;;17.79;78.94;99826.77;1755442;81;21193;-72
2022/06/20 01:44:53;;;;;;;5.62;3.98;;;;;;;17.75;78.99;99831.94;1754941;81;21574;-72
2022/06/20 01:47:21;;;;;;;8.05;3.65;;;;;;;17.75;79.01;99831.94;1749748;82;21104;-71
2022/06/20 01:49:51;;;;;;;5.65;3.70;;;;;;;17.73;79.20;99823.69;1733621;81;21592;-72
2022/06/20 01:52:38;;;;;;;7.53;4.33;;;;;;;17.70;79.51;99830.09;1707598;83;22168;-71
2022/06/20 01:55:12;;;;;;;9.48;4.12;;;;;;;17.68;80.06;99828.02;1725889;82;21252;-71
2022/06/20 01:57:42;;;;;;;9.10;3.92;;;;;;;17.64;80.10;99819.87;1725936;83;20997;-72
2022/06/20 02:00:20;;;;;;;7.35;3.85;;;;;;;17.60;80.04;99818.41;1725932;83;21052;-73
2022/06/20 02:02:58;;;;;;;7.15;3.98;;;;;;;17.57;80.25;99825.27;1725682;82;21100;-71
2022/06/20 02:05:28;;;;;;;6.85;3.72;;;;;;;17.56;80.05;99823.09;1726070;82;21124;-73
2022/06/20 02:07:57;;;;;;;5.72;3.60;;;;;;;17.56;80.03;99830.23;1725978;83;21139;-72
2022/06/20 02:10:32;;;;;;;5.37;3.72;;;;;;;17.55;79.90;99833.37;1725930;82;21644;-71
2022/06/20 02:12:59;;;;;;;5.72;4.00;;;;;;;17.55;79.94;99832.50;1731584;81;21080;-72
2022/06/20 02:15:26;;;;;;;4.58;3.47;;;;;;;17.55;79.95;99836.50;1759069;81;21119;-72
2022/06/20 02:17:53;;;;;;;7.65;3.58;;;;;;;17.52;80.10;99840.23;1758846;81;21115;-73
2022/06/20 02:20:24;;;;;;;6.03;3.27;;;;;;;17.54;79.32;99843.64;1758899;81;21205;-71
2022/06/20 02:22:52;;;;;;;5.85;3.58;;;;;;;17.56;79.13;99844.88;1757966;81;21060;-72
2022/06/20 02:25:22;;;;;;;7.83;3.60;;;;;;;17.56;79.07;99847.05;1731299;81;21095;-74
2022/06/20 02:27:53;;;;;;;5.47;3.70;;;;;;;17.58;79.02;99849.61;1759256;81;21092;-72
2022/06/20 02:30:21;;;;;;;8.28;3.62;;;;;;;17.59;78.77;99853.48;1759123;81;21072;-72
2022/06/20 02:33:00;;;;;;;7.30;4.40;;;;;;;17.63;78.44;99855.46;1759209;81;21181;-71
2022/06/20 02:35:27;;;;;;;7.15;3.98;;;;;;;17.64;78.37;99858.97;1757975;81;21088;-73
2022/06/20 02:37:53;;;;;;;5.55;3.62;;;;;;;17.67;78.23;99859.62;1754195;81;21508;-71
2022/06/20 02:40:21;;;;;;;5.87;4.00;;;;;;;17.70;78.04;99859.39;1754050;81;21088;-72
2022/06/20 02:43:05;;;;;;;7.15;4.00;;;;;;;17.74;77.65;99862.20;1754336;81;21604;-72
2022/06/20 02:45:33;;;;;;;5.47;4.00;;;;;;;17.79;77.17;99866.72;1746027;81;21197;-72
2022/06/20 02:48:07;;;;;;;6.85;3.83;;;;;;;17.84;77.01;99869.09;1753712;81;21083;-72
2022/06/20 02:50:38;;;;;;;6.17;3.35;;;;;;;17.90;77.08;99866.00;1753542;81;21076;-72
2022/06/20 02:53:11;;;;;;;5.37;3.60;;;;;;;18.00;76.40;99880.34;1752626;81;21055;-73
2022/06/20 02:55:38;;;;;;;6.80;3.50;;;;;;;18.06;75.52;99877.73;1750894;81;21044;-74
2022/06/20 02:58:21;;;;;;;7.65;3.80;;;;;;;18.14;75.36;99879.35;1753428;81;22075;-70
2022/06/20 03:00:54;;;;;;;6.80;3.47;;;;;;;18.22;74.84;99884.98;1753233;81;21741;-73
2022/06/20 03:03:26;;;;;;;6.53;3.35;;;;;;;18.18;74.44;99870.17;1753738;81;21045;-72
2022/06/20 03:05:54;;;;;;;5.37;3.50;;;;;;;18.43;74.03;99892.38;1753175;81;21001;-72
2022/06/20 03:08:20;;;;;;;7.10;3.62;;;;;;;18.51;73.27;99895.31;1753364;81;21127;-72
2022/06/20 03:10:50;;;;;;;9.75;3.50;;;;;;;18.61;72.73;99889.69;1753134;81;21773;-72
2022/06/20 03:13:19;;;;;;;5.72;3.25;;;;;;;18.73;72.25;99889.74;1753214;81;21083;-72
2022/06/20 03:15:46;;;;;;;6.55;3.70;;;;;;;18.84;72.13;99893.80;1753363;81;21092;-73
2022/06/20 03:18:16;;;;;;;9.18;3.77;;;;;;;18.96;71.90;99890.22;1753162;81;22024;-72
2022/06/20 03:20:45;;;;;;;8.33;3.55;;;;;;;19.08;71.52;99894.61;1753885;81;21453;-72
2022/06/20 03:23:23;;;;;;;6.50;3.62;;;;;;;19.20;71.59;99890.16;1753529;81;21334;-72
2022/06/20 03:25:50;;;;;;;9.38;3.70;;;;;;;19.29;71.33;99892.11;1753435;81;21060;-73
2022/06/20 03:28:19;;;;;;;5.60;3.27;;;;;;;19.47;70.84;99899.19;1753609;81;21571;-71
2022/06/20 03:30:46;;;;;;;5.72;3.50;;;;;;;19.60;69.83;99899.56;1753849;81;22178;-72
2022/06/20 03:33:16;;;;;;;11.83;3.70;;;;;;;19.71;68.47;99894.26;1753613;81;21064;-71
2022/06/20 03:35:47;;;;;;;7.25;3.22;;;;;;;19.86;66.98;99895.73;1753473;81;21192;-73
2022/06/20 03:38:15;;;;;;;7.55;3.37;;;;;;;19.99;65.97;99889.39;1773973;80;21494;-73
2022/06/20 03:40:42;;;;;;;5.35;3.20;;;;;;;20.13;64.44;99885.14;1753780;81;21040;-74
2022/06/20 03:43:12;;;;;;;7.45;3.35;;;;;;;20.26;63.54;99884.48;1753357;81;21000;-72
2022/06/20 03:46:00;;;;;;;5.05;3.08;;;;;;;20.39;62.83;99879.00;1753644;81;21032;-72
2022/06/20 03:48:38;;;;;;;5.45;3.00;;;;;;;20.52;62.02;99873.47;1752440;81;21134;-72
2022/06/20 03:51:11;;;;;;;7.20;3.42;;;;;;;20.66;61.51;99872.36;1755573;80;21092;-73
2022/06/20 03:53:55;;;;;;;7.40;3.62;;;;;;;20.78;61.06;99865.16;1763567;80;21559;-72
2022/06/20 03:56:40;;;;;;;9.73;3.62;;;;;;;20.90;60.69;99857.43;1784688;80;21072;-72
2022/06/20 03:59:18;;;;;;;8.80;3.08;;;;;;;21.04;59.79;99853.09;1784429;80;21093;-73
2022/06/20 04:01:55;;;;;;;7.30;2.85;;;;;;;21.18;58.85;99841.69;1784307;80;21821;-72
2022/06/20 04:04:30;;;;;;;3.42;2.77;;;;;;;21.35;58.40;99846.45;1783804;80;21064;-72
2022/06/20 04:07:04;;;;;;;6.72;2.98;;;;;;;21.53;57.97;99838.19;1784572;80;21068;-74
2022/06/20 04:12:40;;;;;;;5.85;3.17;;;;;;;21.90;56.57;99829.58;1784232;80;21052;-73
2022/06/20 04:15:13;;;;;;;;;;;;;;;22.13;56.37;99823.95;1786881;80;21231;-73
2022/06/20 04:21:08;;;;;;;7.03;3.22;;;;;;;22.44;55.04;99813.17;1784546;80;21533;-72
2022/06/20 04:23:52;;;;;;;7.55;3.50;;;;;;;22.66;54.50;99806.66;1784564;80;26487;-73
2022/06/20 04:26:37;;;;;;;8.05;3.20;;;;;;;22.87;53.46;99803.80;1782499;80;21048;-73
2022/06/20 04:29:12;;;;;;;7.58;3.02;;;;;;;23.06;51.77;99796.27;1784063;80;21145;-72
2022/06/20 04:31:58;;;;;;;5.60;2.72;;;;;;;23.24;50.94;99788.63;1784568;80;21121;-74
2022/06/20 04:34:33;;;;;;;8.95;2.58;;;;;;;23.37;49.69;99787.45;1784533;80;21559;-72
2022/06/20 04:37:18;;;;;;;5.00;2.40;;;;;;;23.57;48.63;99785.53;1780383;80;21065;-72
2022/06/20 04:40:11;;;;;;;3.15;2.20;;;;;;;23.69;47.49;99781.64;1784542;80;21060;-72
2022/06/20 04:42:54;;;;;;;3.35;2.00;;;;;;;23.80;47.04;99775.26;1784392;80;21736;-71
2022/06/20 04:45:28;;;;;;;4.87;2.60;;;;;;;23.93;45.63;99767.68;1784633;80;21572;-71
2022/06/20 04:48:13;;;;;;;6.80;2.50;;;;;;;23.97;45.41;99761.01;1784402;80;21100;-72
2022/06/20 04:50:42;;;;;;;4.65;2.35;;;;;;;24.02;45.14;99768.11;1784681;80;21085;-71
2022/06/20 04:53:12;;;;;;;6.92;2.25;;;;;;;24.20;45.33;99764.09;1784266;80;21037;-72
2022/06/20 04:55:46;;;;;;;6.77;2.43;;;;;;;24.35;44.18;99760.86;1784980;80;21178;-71
2022/06/20 04:58:17;;;;;;;5.47;2.20;;;;;;;24.56;43.19;99763.25;1784405;80;22242;-70
2022/06/20 05:00:45;;;;;;;6.08;2.00;;;;;;;24.81;43.27;99765.63;1784752;80;21072;-71
2022/06/20 05:03:17;;;;;;;7.50;2.70;;;;;;;25.06;41.98;99762.60;1784532;80;21028;-71
2022/06/20 05:05:47;;;;;;;4.47;2.17;;;;;;;25.12;41.54;99760.12;1783949;80;21100;-71
2022/06/20 05:08:27;;;;;;;7.65;2.20;;;;;;;25.27;41.53;99759.03;1784267;80;21106;-71
2022/06/20 05:11:08;;;;;;;5.78;2.27;;;;;;;25.47;41.56;99756.11;1784875;80;21490;-71
2022/06/20 05:13:42;;;;;;;5.10;2.58;;;;;;;25.67;40.99;99758.86;1756384;80;21118;-72
2022/06/20 05:16:22;;;;;;;7.10;2.30;;;;;;;25.88;40.68;99759.83;1784538;80;21036;-72
2022/06/20 05:18:54;;;;;;;4.25;2.10;;;;;;;25.97;40.06;99763.36;1784741;80;21061;-72
2022/06/20 05:21:28;;;;;;;3.95;2.20;;;;;;;25.99;40.23;99769.44;1784854;80;22258;-71
2022/06/20 05:24:00;;;;;;;5.75;2.02;;;;;;;26.09;39.77;99758.02;1783599;80;20984;-72
2022/06/20 05:26:28;;;;;;;;;;;;;;;26.21;39.78;99763.09;1787507;80;21001;-72
2022/06/20 05:28:57;;;;;;;5.40;2.60;;;;;;;26.24;39.61;99756.00;1784476;80;20165;-72
2022/06/20 05:31:31;;;;;;;6.65;2.35;;;;;;;26.31;39.68;99758.36;1784585;80;21009;-72
2022/06/20 05:34:06;;;;;;;9.28;2.45;;;;;;;26.43;39.66;99753.47;1784546;80;21252;-74
2022/06/20 05:36:50;;;;;;;4.40;2.12;;;;;;;26.49;40.04;99752.30;1770634;80;21076;-73
2022/06/20 05:39:25;;;;;;;3.55;2.00;;;;;;;26.60;38.83;99757.91;1784410;80;21057;-73
2022/06/20 05:41:51;;;;;;;5.25;2.10;;;;;;;26.58;38.48;99752.66;1784418;80;21032;-72
2022/06/20 05:44:19;;;;;;;3.87;1.92;;;;;;;26.57;38.67;99756.87;1782969;80;21040;-71
2022/06/20 05:46:52;;;;;;;6.12;1.95;;;;;;;26.64;38.74;99750.30;1753633;81;21644;-72
2022/06/20 05:49:29;;;;;;;5.75;2.22;;;;;;;26.69;38.16;99749.30;1753244;81;21074;-74
2022/06/20 05:51:57;;;;;;;8.00;2.17;;;;;;;26.76;37.88;99745.73;1753632;81;20969;-73
2022/06/20 05:54:28;;;;;;;7.90;2.17;;;;;;;26.72;37.73;99747.59;1753535;81;21051;-71
2022/06/20 05:57:02;;;;;;;4.00;2.22;;;;;;;26.88;37.64;99747.57;1753927;81;21484;-73
2022/06/20 05:59:54;;;;;;;6.60;2.42;;;;;;;26.99;37.88;99733.70;1753064;81;21166;-73
2022/06/20 06:02:44;;;;;;;6.12;2.22;;;;;;;27.14;37.53;99724.36;1752874;81;21067;-71
2022/06/20 06:05:35;;;;;;;3.67;1.98;;;;;;;27.26;37.46;99714.03;1753297;81;20988;-71
2022/06/20 06:08:26;;;;;;;7.78;2.10;;;;;;;27.35;36.63;99702.17;1753062;81;21016;-73
2022/06/20 06:11:03;;;;;;;5.28;2.50;;;;;;;27.40;36.65;99706.56;1753408;81;21084;-71
2022/06/20 06:13:51;;;;;;;3.65;2.02;;;;;;;27.38;37.49;99692.38;1754062;81;21254;-72
2022/06/20 06:16:46;;;;;;;7.50;2.20;;;;;;;27.56;36.65;99692.61;1752948;81;21068;-72
2022/06/20 06:19:35;;;;;;;4.22;1.80;;;;;;;27.68;35.76;99687.67;1753042;81;21076;-72
2022/06/20 06:22:07;;;;;;;5.58;2.00;;;;;;;27.76;36.21;99692.50;1753392;81;21517;-72
2022/06/20 06:24:36;;;;;;;5.25;2.10;;;;;;;27.81;35.58;99690.13;1748483;81;21027;-72
2022/06/20 06:27:04;;;;;;;7.42;1.80;;;;;;;27.82;35.04;99685.03;1768063;80;21147;-74
2022/06/20 06:29:39;;;;;;;4.08;2.00;;;;;;;27.81;35.47;99676.59;1750539;81;21095;-75
2022/06/20 06:32:14;;;;;;;6.22;2.50;;;;;;;27.87;35.80;99671.51;1769147;80;21013;-72
2022/06/20 06:34:52;;;;;;;4.70;1.92;;;;;;;28.12;35.07;99663.53;1774283;80;21016;-73
2022/06/20 06:37:33;;;;;;;5.25;2.10;;;;;;;28.48;34.14;99663.41;1778738;80;21112;-72
2022/06/20 06:40:11;;;;;;;6.72;2.00;;;;;;;28.75;33.19;99654.66;1770666;80;21140;-70
2022/06/20 06:42:39;;;;;;;7.87;1.90;;;;;;;28.99;33.16;99654.91;1738543;81;21076;-73
2022/06/20 06:45:10;;;;;;;4.17;1.57;;;;;;;29.23;31.93;99654.30;1764852;80;21049;-72
2022/06/20 06:47:41;;;;;;;7.22;2.22;;;;;;;29.57;31.43;99659.61;1785081;80;21338;-73
2022/06/20 06:50:44;;;;;;;6.75;2.25;;;;;;;30.01;30.34;99657.27;1771472;80;21612;-72
2022/06/20 06:53:41;;;;;;;2.85;2.27;;;;;;;30.06;29.85;99640.70;1768868;80;21600;-73
2022/06/20 06:56:16;;;;;;;6.70;2.60;;;;;;;29.80;30.11;99639.11;1769522;80;21500;-73
2022/06/20 06:59:01;;;;;;;4.47;2.35;;;;;;;29.55;30.55;99649.46;1759641;80;21028;-74
2022/06/20 07:01:40;;;;;;;8.78;2.70;;;;;;;29.28;31.42;99638.29;1766552;80;21569;-73
2022/06/20 07:04:18;;;;;;;4.17;2.30;;;;;;;29.12;30.48;99653.42;1753513;81;21063;-72
2022/06/20 07:06:59;;;;;;;4.05;2.02;;;;;;;28.96;30.98;99645.77;1753844;81;22171;-73
2022/06/20 07:09:34;;;;;;;7.30;2.50;;;;;;;29.18;30.52;99640.47;1753214;81;21204;-73
2022/06/20 07:12:13;;;;;;;9.28;2.40;;;;;;;29.41;30.40;99627.60;1753464;81;21075;-73
2022/06/20 07:14:43;;;;;;;6.83;2.42;;;;;;;29.50;30.22;99631.05;1726462;81;21111;-74
2022/06/20 07:17:24;;;;;;;7.55;2.33;;;;;;;29.22;29.81;99633.64;1753542;81;21001;-73
2022/06/20 07:19:51;;;;;;;7.03;2.42;;;;;;;29.22;30.36;99633.64;1753559;81;21203;-74
2022/06/20 07:22:19;;;;;;;3.70;1.92;;;;;;;29.32;30.74;99627.39;1753361;81;21076;-73
2022/06/20 07:24:48;;;;;;;7.45;2.22;;;;;;;29.55;30.36;99630.47;1726210;81;21528;-73
2022/06/20 07:27:24;;;;;;;4.33;2.10;;;;;;;29.81;29.09;99640.25;1761785;80;21076;-75
2022/06/20 07:30:02;;;;;;;8.83;2.27;;;;;;;30.02;29.52;99636.69;1781802;80;21100;-74
2022/06/20 07:32:40;;;;;;;5.03;1.87;;;;;;;30.15;29.21;99634.63;1774159;80;21959;-75
2022/06/20 07:35:20;;;;;;;11.90;1.90;;;;;;;30.43;27.72;99632.47;1753130;81;21059;-74
2022/06/20 07:38:02;;;;;;;3.50;1.55;;;;;;;30.81;27.00;99615.79;1752608;80;21044;-74
2022/06/20 07:40:36;;;;;;;11.95;1.80;;;;;;;30.69;27.70;99612.27;1772871;80;21573;-73
2022/06/20 07:43:12;;;;;;;6.33;1.85;;;;;;;30.48;28.04;99619.13;1778547;80;21584;-73
2022/06/20 07:45:43;;;;;;;2.77;1.42;;;;;;;30.45;28.12;99620.36;1778218;80;21553;-72
2022/06/20 07:48:34;;;;;;;4.95;1.92;;;;;;;30.73;28.22;99624.40;1778704;80;21508;-74
2022/06/20 07:51:18;;;;;;;5.75;1.90;;;;;;;31.05;27.63;99622.09;1776625;80;21576;-73
2022/06/20 07:53:59;;;;;;;3.47;1.60;;;;;;;31.28;26.98;99607.33;1776095;80;21076;-73
2022/06/20 07:56:52;;;;;;;6.22;1.70;;;;;;;31.12;26.81;99618.88;1770116;80;21493;-73
2022/06/20 07:59:34;;;;;;;5.95;1.50;;;;;;;31.09;26.37;99622.53;1747996;82;21147;-73
2022/06/20 08:02:24;;;;;;;5.10;2.10;;;;;;;31.26;26.60;99623.02;1748172;82;20973;-72
2022/06/20 08:04:55;;;;;;;6.93;1.40;;;;;;;31.16;26.52;99616.60;1747447;82;21162;-73
2022/06/20 08:07:34;;;;;;;12.10;1.70;;;;;;;30.96;26.79;99611.59;1748140;82;21521;-73
2022/06/20 08:10:10;;;;;;;4.80;1.77;;;;;;;30.86;26.37;99603.81;1747746;82;21047;-74
2022/06/20 08:12:44;;;;;;;3.47;1.50;;;;;;;31.08;26.39;99604.03;1755430;80;21264;-74
2022/06/20 08:15:26;;;;;;;8.60;1.57;;;;;;;31.62;25.42;99616.46;1755014;80;21099;-74
2022/06/20 08:17:54;;;;;;;7.95;1.80;;;;;;;31.87;25.51;99610.73;1751514;80;21655;-73
2022/06/20 08:20:23;;;;;;;6.87;1.67;;;;;;;32.06;25.05;99600.09;1755654;80;21077;-71
2022/06/20 08:22:54;;;;;;;4.25;1.70;;;;;;;32.39;25.35;99599.55;1760941;80;21060;-73
2022/06/20 08:25:25;;;;;;;4.10;1.55;;;;;;;32.80;24.51;99593.49;1765949;80;21251;-73
2022/06/20 08:27:59;;;;;;;4.58;1.98;;;;;;;32.77;24.67;99592.03;1747403;82;21583;-75
2022/06/20 08:31:00;;;;;;;5.22;1.60;;;;;;;32.79;24.65;99602.73;1747265;82;21032;-74
2022/06/20 08:33:38;;;;;;;4.97;1.77;;;;;;;32.60;24.11;99604.44;1747734;82;21096;-73
2022/06/20 08:36:30;;;;;;;8.13;1.82;;;;;;;32.77;23.99;99598.85;1746771;82;21024;-73
2022/06/20 08:39:11;;;;;;;7.40;1.72;;;;;;;33.03;23.64;99587.53;1752532;81;21102;-72
2022/06/20 08:42:17;;;;;;;5.10;1.50;;;;;;;33.12;24.12;99588.98;1753542;81;20989;-73
2022/06/20 08:45:21;;;;;;;5.55;2.10;;;;;;;33.01;23.96;99594.59;1760617;80;21512;-73
2022/06/20 08:48:27;;;;;;;5.78;1.45;;;;;;;32.83;24.26;99597.67;1784455;80;21073;-73
2022/06/20 08:51:23;;;;;;;5.80;1.37;;;;;;;32.60;24.15;99588.09;1784629;80;21061;-72
2022/06/20 08:54:13;;;;;;;3.83;1.50;;;;;;;32.67;24.14;99587.57;1784554;80;21032;-73
2022/06/20 08:57:06;;;;;;;4.95;1.50;;;;;;;32.30;24.42;99595.38;1784579;80;21121;-73
2022/06/20 08:59:42;;;;;;;6.65;1.62;;;;;;;32.36;24.60;99584.97;1784644;80;20989;-72
2022/06/20 09:02:36;;;;;;;5.65;1.52;;;;;;;32.31;24.95;99582.58;1784538;80;21024;-75
2022/06/20 09:05:18;;;;;;;17.10;1.87;;;;;;;32.62;24.91;99576.45;1784156;80;21052;-73
2022/06/20 09:07:54;;;;;;;6.87;1.20;;;;;;;33.25;23.69;99577.72;1784357;80;21084;-74
2022/06/20 09:10:44;;;;;;;4.95;1.30;;;;;;;33.13;23.91;99577.04;1784180;80;21095;-73
2022/06/20 09:13:46;;;;;;;;;;;;;;;33.00;24.27;99571.08;1786866;80;21088;-72
2022/06/20 09:16:48;;;;;;;3.42;1.40;;;;;;;33.15;24.41;99572.71;1784530;80;20417;-75
2022/06/20 09:19:26;;;;;;;3.08;1.35;;;;;;;33.42;24.07;99565.22;1784542;80;21075;-74
2022/06/20 09:22:18;;;;;;;4.58;1.37;;;;;;;32.61;25.08;99561.16;1784736;80;21553;-73
2022/06/20 09:25:17;;;;;;;;;;;;;;;32.26;25.26;99551.88;1786872;80;21025;-73
2022/06/20 09:27:54;;;;;;;6.15;1.30;;;;;;;32.13;25.55;99542.36;1784811;80;27951;-75
2022/06/20 09:30:37;;;;;;;2.92;1.30;;;;;;;32.04;25.62;99547.72;1784627;80;21091;-74
2022/06/20 09:33:31;;;;;;;4.03;1.15;;;;;;;31.91;25.83;99553.46;1784977;80;21119;-75
2022/06/20 09:36:39;;;;;;;4.80;1.30;;;;;;;32.20;26.19;99544.55;1784501;80;21098;-75
2022/06/20 09:39:48;;;;;;;5.17;1.40;;;;;;;32.97;24.68;99555.69;1736145;82;21074;-74
2022/06/20 09:42:39;;;;;;;6.90;1.50;;;;;;;33.53;23.87;99554.13;1782374;80;21013;-73
2022/06/20 09:45:37;;;;;;;3.98;1.32;;;;;;;33.26;24.20;99561.64;1784379;80;21033;-73
2022/06/20 09:48:25;;;;;;;4.15;1.50;;;;;;;33.14;23.92;99560.14;1784416;80;21036;-73
2022/06/20 09:51:21;;;;;;;4.62;1.70;;;;;;;33.01;24.39;99565.95;1784978;80;21782;-73
2022/06/20 09:54:02;;;;;;;2.95;1.47;;;;;;;33.31;23.79;99555.00;1784595;80;21190;-72
2022/06/20 09:56:46;;;;;;;5.90;1.40;;;;;;;33.73;23.54;99548.53;1784339;80;21044;-73
2022/06/20 09:59:30;;;;;;;5.90;1.72;;;;;;;34.06;23.35;99560.56;1784465;80;21493;-72
2022/06/20 10:02:10;;;;;;;4.70;1.50;;;;;;;34.22;23.48;99550.45;1784622;80;21055;-73
2022/06/20 10:05:17;;;;;;;2.87;1.50;;;;;;;34.55;23.03;99537.48;1784553;80;21586;-75
2022/06/20 10:08:11;;;;;;;4.22;1.42;;;;;;;34.88;22.47;99552.17;1784760;80;21044;-74
2022/06/20 10:10:46;;;;;;;4.03;1.37;;;;;;;35.19;22.24;99542.94;1784868;80;21037;-75
2022/06/20 10:13:30;;;;;;;3.45;1.27;;;;;;;35.49;21.63;99528.39;1784815;80;21025;-73
2022/06/20 10:16:23;;;;;;;3.98;1.32;;;;;;;35.56;21.54;99526.38;1784903;80;21044;-72
2022/06/20 10:19:14;;;;;;;6.62;1.65;;;;;;;34.62;22.12;99516.41;1784821;80;21137;-74
2022/06/20 10:22:07;;;;;;;6.12;1.70;;;;;;;33.71;23.13;99519.28;1784858;80;21545;-74
2022/06/20 10:25:06;;;;;;;9.08;1.62;;;;;;;33.85;23.99;99510.73;1784818;80;21036;-74
2022/06/20 10:27:45;;;;;;;11.28;2.00;;;;;;;34.27;23.45;99511.52;1708108;83;21149;-73
2022/06/20 10:30:17;;;;;;;5.25;1.47;;;;;;;33.80;23.91;99501.56;1684137;84;21134;-74
2022/06/20 10:33:04;;;;;;;10.58;1.60;;;;;;;33.60;23.39;99493.53;1743797;80;21112;-74
2022/06/20 10:35:45;;;;;;;3.90;1.30;;;;;;;33.29;23.87;99507.98;1784372;80;21016;-73
2022/06/20 10:38:33;;;;;;;8.30;1.75;;;;;;;33.22;23.98;99510.76;1784567;80;21477;-75
2022/06/20 10:41:26;;;;;;;7.28;1.42;;;;;;;33.66;24.21;99502.70;1765618;80;21029;-73
2022/06/20 10:44:23;;;;;;;7.65;1.70;;;;;;;33.86;23.46;99497.91;1756259;80;21116;-74
2022/06/20 10:47:22;;;;;;;2.85;1.37;;;;;;;33.77;23.46;99499.25;1773913;80;21700;-72
2022/06/20 10:50:11;;;;;;;4.58;1.45;;;;;;;33.95;23.25;99511.58;1767624;80;21088;-74
2022/06/20 10:53:02;;;;;;;2.42;1.20;;;;;;;34.25;22.68;99499.44;1755417;81;21005;-73
2022/06/20 10:55:37;;;;;;;14.07;1.60;;;;;;;34.71;22.62;99487.68;1754692;81;20993;-75
2022/06/20 10:58:27;;;;;;;2.70;1.00;;;;;;;34.92;22.19;99481.41;1753981;81;21508;-74
2022/06/20 11:01:16;;;;;;;4.72;1.42;;;;;;;34.59;22.01;99484.03;1754473;81;21913;-73
2022/06/20 11:04:11;;;;;;;6.47;1.17;;;;;;;34.31;22.65;99484.05;1754505;81;21040;-76
2022/06/20 11:07:00;;;;;;;4.03;1.20;;;;;;;33.62;22.91;99489.52;1753722;81;21020;-75
2022/06/20 11:10:08;;;;;;;2.87;1.05;;;;;;;33.56;23.84;99474.52;1753623;81;20982;-73
2022/06/20 11:13:06;;;;;;;6.65;1.05;;;;;;;33.74;23.13;99457.39;1773500;80;20982;-74
2022/06/20 11:15:56;;;;;;;5.10;1.50;;;;;;;34.00;23.07;99469.40;1753578;81;21168;-73
2022/06/20 11:18:31;;;;;;;9.35;1.15;;;;;;;34.13;22.40;99470.38;1753784;81;21064;-72
2022/06/20 11:21:16;;;;;;;5.60;1.30;;;;;;;33.71;23.24;99460.04;1753640;81;21084;-75
2022/06/20 11:24:22;;;;;;;3.90;1.07;;;;;;;33.73;22.91;99454.34;1746659;81;21024;-74
2022/06/20 11:27:26;;;;;;;3.33;1.45;;;;;;;33.91;22.68;99453.00;1753846;81;20989;-73
2022/06/20 11:30:15;;;;;;;4.70;1.35;;;;;;;33.82;22.77;99451.11;1753778;81;21020;-73
2022/06/20 11:33:09;;;;;;;5.40;1.20;;;;;;;33.87;22.29;99457.77;1753711;81;20998;-72
2022/06/20 11:35:59;;;;;;;3.85;1.07;;;;;;;33.60;22.94;99458.87;1753710;81;21033;-74
2022/06/20 11:38:49;;;;;;;3.15;1.02;;;;;;;33.52;22.91;99453.67;1753330;81;21056;-74
2022/06/20 11:41:19;;;;;;;3.15;1.10;;;;;;;33.93;22.62;99442.69;1753808;81;21516;-74
2022/06/20 11:44:12;;;;;;;4.28;1.10;;;;;;;34.18;22.39;99445.93;1753633;81;21149;-73
2022/06/20 11:47:10;;;;;;;3.50;1.37;;;;;;;34.30;22.49;99446.83;1774828;80;21016;-73
2022/06/20 11:50:17;;;;;;;5.75;1.10;;;;;;;34.47;22.04;99436.95;1771670;80;21084;-73
2022/06/20 11:52:53;;;;;;;3.52;1.05;;;;;;;34.59;22.18;99434.81;1784677;80;21123;-74
2022/06/20 11:55:41;;;;;;;3.87;1.55;;;;;;;34.67;21.62;99433.14;1784640;80;21020;-74
2022/06/20 11:58:32;;;;;;;2.77;1.00;;;;;;;34.55;22.32;99430.87;1784109;80;21276;-74
2022/06/20 12:01:10;;;;;;;6.92;1.00;;;;;;;34.67;22.14;99420.84;1774451;80;21634;-73
2022/06/20 12:04:13;;;;;;;2.22;1.25;;;;;;;34.33;21.65;99415.50;1768861;80;21017;-74
2022/06/20 12:06:47;;;;;;;4.37;1.27;;;;;;;33.63;22.48;99425.65;1753081;81;21075;-73
2022/06/20 12:09:40;;;;;;;5.87;1.15;;;;;;;33.17;23.10;99418.66;1765333;80;21504;-74
2022/06/20 12:12:34;;;;;;;4.80;1.37;;;;;;;33.12;23.17;99420.39;1767736;80;21172;-73
2022/06/20 12:15:41;;;;;;;5.03;1.00;;;;;;;33.13;23.34;99414.73;1784473;80;20970;-76
2022/06/20 12:23:18;;;;;;;7.25;1.00;;;;;;;33.26;23.23;99396.58;1767580;80;21036;-74
2022/06/20 12:24:04;;;;;;;5.25;1.10;;;;;;;33.34;23.79;99394.95;1727994;80;21060;-73
2022/06/20 12:26:39;;;;;;;4.58;1.32;;;;;;;33.36;23.11;99392.80;1759559;80;21151;-72
2022/06/20 12:29:16;;;;;;;4.17;1.10;;;;;;;33.38;22.98;99378.41;1784477;80;21064;-73
2022/06/20 12:31:50;;;;;;;2.93;0.73;;;;;;;33.38;22.89;99395.64;1784669;80;21549;-73
2022/06/20 12:34:45;;;;;;;7.42;1.20;;;;;;;33.17;23.59;99388.66;1784528;80;21033;-72
2022/06/20 12:37:40;;;;;;;1.87;1.10;;;;;;;33.04;23.73;99380.56;1784607;80;21044;-73
2022/06/20 12:40:12;;;;;;;2.87;0.90;;;;;;;33.10;23.56;99375.59;1784590;80;21168;-73
2022/06/20 12:43:08;;;;;;;2.58;1.00;;;;;;;33.29;23.42;99364.74;1756584;81;21080;-74